sensor_id;sensor_type;location;lat;lon;timestamp;P1;durP1;ratioP1;P2;durP2;ratioP2
34200;SDS011;20469;55.638;37.670;2023-04-25T00:01:05;11.15;;;4.50;;
34200;SDS011;20469;55.638;37.670;2023-04-25T00:03:32;9.35;;;4.70;;
34200;SDS011;20469;55.638;37.670;2023-04-25T00:06:00;6.60;;;3.60;;
34200;SDS011;20469;55.638;37.670;2023-04-25T00:08:30;10.57;;;3.95;;
34200;SDS011;20469;55.638;37.670;2023-04-25T00:10:57;5.25;;;3.50;;
34200;SDS011;20469;55.638;37.670;2023-04-25T00:13:25;6.05;;;3.38;;
34200;SDS011;20469;55.638;37.670;2023-04-25T00:15:53;8.43;;;4.07;;
34200;SDS011;20469;55.638;37.670;2023-04-25T00:18:20;9.10;;;4.45;;
34200;SDS011;20469;55.638;37.670;2023-04-25T00:20:48;7.07;;;3.88;;
34200;SDS011;20469;55.638;37.670;2023-04-25T00:23:15;6.80;;;4.57;;
34200;SDS011;20469;55.638;37.670;2023-04-25T00:25:47;9.13;;;4.90;;
34200;SDS011;20469;55.638;37.670;2023-04-25T00:28:15;9.75;;;4.97;;
34200;SDS011;20469;55.638;37.670;2023-04-25T00:30:43;11.70;;;4.90;;
34200;SDS011;20469;55.638;37.670;2023-04-25T00:33:10;7.63;;;4.53;;
34200;SDS011;20469;55.638;37.670;2023-04-25T00:35:37;9.35;;;5.07;;
34200;SDS011;20469;55.638;37.670;2023-04-25T00:38:05;10.25;;;5.10;;
34200;SDS011;20469;55.638;37.670;2023-04-25T00:40:32;9.38;;;4.80;;
34200;SDS011;20469;55.638;37.670;2023-04-25T00:42:59;9.90;;;5.05;;
34200;SDS011;20469;55.638;37.670;2023-04-25T00:45:27;12.77;;;5.35;;
34200;SDS011;20469;55.638;37.670;2023-04-25T00:47:59;13.15;;;5.78;;
34200;SDS011;20469;55.638;37.670;2023-04-25T00:50:26;11.43;;;5.35;;
34200;SDS011;20469;55.638;37.670;2023-04-25T00:52:53;10.82;;;5.88;;
34200;SDS011;20469;55.638;37.670;2023-04-25T00:55:20;14.48;;;5.57;;
34200;SDS011;20469;55.638;37.670;2023-04-25T00:57:48;12.40;;;5.57;;
34200;SDS011;20469;55.638;37.670;2023-04-25T01:00:16;10.45;;;5.40;;
34200;SDS011;20469;55.638;37.670;2023-04-25T01:02:44;13.80;;;5.28;;
34200;SDS011;20469;55.638;37.670;2023-04-25T01:05:12;10.45;;;5.43;;
34200;SDS011;20469;55.638;37.670;2023-04-25T01:07:39;12.82;;;5.78;;
34200;SDS011;20469;55.638;37.670;2023-04-25T01:10:07;11.98;;;5.30;;
34200;SDS011;20469;55.638;37.670;2023-04-25T01:12:35;16.08;;;5.90;;
34200;SDS011;20469;55.638;37.670;2023-04-25T01:15:02;15.57;;;5.63;;
34200;SDS011;20469;55.638;37.670;2023-04-25T01:17:30;9.48;;;5.30;;
34200;SDS011;20469;55.638;37.670;2023-04-25T01:19:58;11.05;;;5.65;;
34200;SDS011;20469;55.638;37.670;2023-04-25T01:22:25;9.88;;;5.43;;
34200;SDS011;20469;55.638;37.670;2023-04-25T01:24:53;11.00;;;5.65;;
34200;SDS011;20469;55.638;37.670;2023-04-25T01:27:21;11.52;;;6.03;;
34200;SDS011;20469;55.638;37.670;2023-04-25T01:29:49;14.38;;;6.03;;
34200;SDS011;20469;55.638;37.670;2023-04-25T01:32:16;11.30;;;6.07;;
34200;SDS011;20469;55.638;37.670;2023-04-25T01:34:44;10.30;;;6.22;;
34200;SDS011;20469;55.638;37.670;2023-04-25T01:37:12;12.57;;;6.18;;
34200;SDS011;20469;55.638;37.670;2023-04-25T01:39:39;13.15;;;6.18;;
34200;SDS011;20469;55.638;37.670;2023-04-25T01:42:06;12.05;;;6.38;;
34200;SDS011;20469;55.638;37.670;2023-04-25T01:44:34;10.93;;;6.30;;
34200;SDS011;20469;55.638;37.670;2023-04-25T01:47:01;14.85;;;6.93;;
34200;SDS011;20469;55.638;37.670;2023-04-25T01:49:28;12.68;;;6.85;;
34200;SDS011;20469;55.638;37.670;2023-04-25T01:51:55;11.85;;;6.88;;
34200;SDS011;20469;55.638;37.670;2023-04-25T01:54:22;17.88;;;6.82;;
34200;SDS011;20469;55.638;37.670;2023-04-25T01:56:50;12.25;;;7.00;;
34200;SDS011;20469;55.638;37.670;2023-04-25T01:59:18;16.25;;;7.20;;
34200;SDS011;20469;55.638;37.670;2023-04-25T02:01:46;19.13;;;7.05;;
34200;SDS011;20469;55.638;37.670;2023-04-25T02:04:13;15.05;;;7.25;;
34200;SDS011;20469;55.638;37.670;2023-04-25T02:06:41;17.08;;;7.78;;
34200;SDS011;20469;55.638;37.670;2023-04-25T02:09:08;16.08;;;7.10;;
34200;SDS011;20469;55.638;37.670;2023-04-25T02:11:35;12.40;;;7.13;;
34200;SDS011;20469;55.638;37.670;2023-04-25T02:14:03;12.10;;;7.30;;
34200;SDS011;20469;55.638;37.670;2023-04-25T02:16:30;12.25;;;6.70;;
34200;SDS011;20469;55.638;37.670;2023-04-25T02:18:57;18.05;;;7.60;;
34200;SDS011;20469;55.638;37.670;2023-04-25T02:21:25;15.05;;;7.07;;
34200;SDS011;20469;55.638;37.670;2023-04-25T02:23:52;14.18;;;6.85;;
34200;SDS011;20469;55.638;37.670;2023-04-25T02:26:20;11.68;;;7.03;;
34200;SDS011;20469;55.638;37.670;2023-04-25T02:28:47;18.92;;;7.10;;
34200;SDS011;20469;55.638;37.670;2023-04-25T02:31:14;14.65;;;7.63;;
34200;SDS011;20469;55.638;37.670;2023-04-25T02:33:43;13.85;;;7.22;;
34200;SDS011;20469;55.638;37.670;2023-04-25T02:36:10;11.82;;;7.05;;
34200;SDS011;20469;55.638;37.670;2023-04-25T02:38:37;11.45;;;6.93;;
34200;SDS011;20469;55.638;37.670;2023-04-25T02:41:04;12.18;;;6.28;;
34200;SDS011;20469;55.638;37.670;2023-04-25T02:43:32;13.85;;;7.03;;
34200;SDS011;20469;55.638;37.670;2023-04-25T02:45:59;15.05;;;7.70;;
34200;SDS011;20469;55.638;37.670;2023-04-25T02:48:26;18.27;;;7.30;;
34200;SDS011;20469;55.638;37.670;2023-04-25T02:50:54;15.43;;;7.85;;
34200;SDS011;20469;55.638;37.670;2023-04-25T02:53:22;20.25;;;7.88;;
34200;SDS011;20469;55.638;37.670;2023-04-25T02:55:49;16.27;;;6.43;;
34200;SDS011;20469;55.638;37.670;2023-04-25T02:58:16;17.83;;;7.93;;
34200;SDS011;20469;55.638;37.670;2023-04-25T03:00:43;14.80;;;7.53;;
34200;SDS011;20469;55.638;37.670;2023-04-25T03:03:10;14.52;;;6.40;;
34200;SDS011;20469;55.638;37.670;2023-04-25T03:05:38;12.52;;;6.40;;
34200;SDS011;20469;55.638;37.670;2023-04-25T03:08:05;16.17;;;6.90;;
34200;SDS011;20469;55.638;37.670;2023-04-25T03:10:32;10.05;;;6.25;;
34200;SDS011;20469;55.638;37.670;2023-04-25T03:12:59;14.90;;;6.53;;
34200;SDS011;20469;55.638;37.670;2023-04-25T03:15:26;13.82;;;6.38;;
34200;SDS011;20469;55.638;37.670;2023-04-25T03:17:53;12.50;;;6.82;;
34200;SDS011;20469;55.638;37.670;2023-04-25T03:20:20;10.85;;;6.57;;
34200;SDS011;20469;55.638;37.670;2023-04-25T03:22:48;12.48;;;7.00;;
34200;SDS011;20469;55.638;37.670;2023-04-25T03:25:15;11.38;;;6.88;;
34200;SDS011;20469;55.638;37.670;2023-04-25T03:27:42;17.08;;;7.53;;
34200;SDS011;20469;55.638;37.670;2023-04-25T03:30:09;14.90;;;7.68;;
34200;SDS011;20469;55.638;37.670;2023-04-25T03:32:37;12.85;;;7.05;;
34200;SDS011;20469;55.638;37.670;2023-04-25T03:35:04;15.10;;;7.53;;
34200;SDS011;20469;55.638;37.670;2023-04-25T03:37:32;16.13;;;7.30;;
34200;SDS011;20469;55.638;37.670;2023-04-25T03:39:59;13.07;;;7.55;;
34200;SDS011;20469;55.638;37.670;2023-04-25T03:42:26;10.40;;;6.68;;
34200;SDS011;20469;55.638;37.670;2023-04-25T03:44:53;11.95;;;7.22;;
34200;SDS011;20469;55.638;37.670;2023-04-25T03:47:20;14.45;;;7.22;;
34200;SDS011;20469;55.638;37.670;2023-04-25T03:49:48;13.77;;;7.10;;
34200;SDS011;20469;55.638;37.670;2023-04-25T03:52:18;11.70;;;7.00;;
34200;SDS011;20469;55.638;37.670;2023-04-25T03:54:45;15.23;;;7.32;;
34200;SDS011;20469;55.638;37.670;2023-04-25T03:57:12;15.00;;;7.57;;
34200;SDS011;20469;55.638;37.670;2023-04-25T03:59:39;13.70;;;7.20;;
34200;SDS011;20469;55.638;37.670;2023-04-25T04:02:07;11.60;;;7.03;;
34200;SDS011;20469;55.638;37.670;2023-04-25T04:04:34;16.17;;;7.40;;
34200;SDS011;20469;55.638;37.670;2023-04-25T04:07:02;13.48;;;7.47;;
34200;SDS011;20469;55.638;37.670;2023-04-25T04:09:29;16.75;;;7.90;;
34200;SDS011;20469;55.638;37.670;2023-04-25T04:11:56;14.45;;;7.43;;
34200;SDS011;20469;55.638;37.670;2023-04-25T04:14:24;15.50;;;8.30;;
34200;SDS011;20469;55.638;37.670;2023-04-25T04:16:51;15.07;;;7.85;;
34200;SDS011;20469;55.638;37.670;2023-04-25T04:19:18;13.30;;;7.47;;
34200;SDS011;20469;55.638;37.670;2023-04-25T04:21:46;14.60;;;7.45;;
34200;SDS011;20469;55.638;37.670;2023-04-25T04:24:13;11.77;;;7.18;;
34200;SDS011;20469;55.638;37.670;2023-04-25T04:26:43;12.27;;;7.40;;
34200;SDS011;20469;55.638;37.670;2023-04-25T04:29:11;13.82;;;7.88;;
34200;SDS011;20469;55.638;37.670;2023-04-25T04:31:39;11.25;;;7.25;;
34200;SDS011;20469;55.638;37.670;2023-04-25T04:34:06;12.48;;;7.00;;
34200;SDS011;20469;55.638;37.670;2023-04-25T04:36:33;16.40;;;8.65;;
34200;SDS011;20469;55.638;37.670;2023-04-25T04:39:01;11.13;;;7.30;;
34200;SDS011;20469;55.638;37.670;2023-04-25T04:41:29;15.98;;;7.10;;
34200;SDS011;20469;55.638;37.670;2023-04-25T04:43:56;13.75;;;7.25;;
34200;SDS011;20469;55.638;37.670;2023-04-25T04:46:23;13.93;;;7.30;;
34200;SDS011;20469;55.638;37.670;2023-04-25T04:51:37;17.15;;;7.65;;
34200;SDS011;20469;55.638;37.670;2023-04-25T04:54:05;12.75;;;7.45;;
34200;SDS011;20469;55.638;37.670;2023-04-25T04:56:32;15.07;;;7.70;;
34200;SDS011;20469;55.638;37.670;2023-04-25T04:58:59;13.32;;;6.95;;
34200;SDS011;20469;55.638;37.670;2023-04-25T05:01:28;15.05;;;7.40;;
34200;SDS011;20469;55.638;37.670;2023-04-25T05:03:56;16.63;;;7.65;;
34200;SDS011;20469;55.638;37.670;2023-04-25T05:06:27;12.55;;;7.13;;
34200;SDS011;20469;55.638;37.670;2023-04-25T05:08:56;17.10;;;7.55;;
34200;SDS011;20469;55.638;37.670;2023-04-25T05:11:24;14.80;;;7.22;;
34200;SDS011;20469;55.638;37.670;2023-04-25T05:13:52;16.10;;;7.20;;
34200;SDS011;20469;55.638;37.670;2023-04-25T05:16:19;12.95;;;6.45;;
34200;SDS011;20469;55.638;37.670;2023-04-25T05:18:47;15.45;;;7.10;;
34200;SDS011;20469;55.638;37.670;2023-04-25T05:21:14;15.27;;;6.30;;
34200;SDS011;20469;55.638;37.670;2023-04-25T05:23:41;11.20;;;6.50;;
34200;SDS011;20469;55.638;37.670;2023-04-25T05:26:09;13.82;;;6.65;;
34200;SDS011;20469;55.638;37.670;2023-04-25T05:28:40;12.18;;;6.53;;
34200;SDS011;20469;55.638;37.670;2023-04-25T05:31:11;16.55;;;7.03;;
34200;SDS011;20469;55.638;37.670;2023-04-25T05:33:39;9.80;;;6.35;;
34200;SDS011;20469;55.638;37.670;2023-04-25T05:36:06;15.30;;;7.00;;
34200;SDS011;20469;55.638;37.670;2023-04-25T05:38:37;12.02;;;7.07;;
34200;SDS011;20469;55.638;37.670;2023-04-25T05:41:04;12.82;;;6.60;;
34200;SDS011;20469;55.638;37.670;2023-04-25T05:43:31;14.98;;;7.13;;
34200;SDS011;20469;55.638;37.670;2023-04-25T05:45:58;14.75;;;6.82;;
34200;SDS011;20469;55.638;37.670;2023-04-25T05:48:26;9.70;;;6.95;;
34200;SDS011;20469;55.638;37.670;2023-04-25T05:50:53;11.05;;;6.70;;
34200;SDS011;20469;55.638;37.670;2023-04-25T05:53:20;11.38;;;7.13;;
34200;SDS011;20469;55.638;37.670;2023-04-25T05:58:34;13.93;;;6.90;;
34200;SDS011;20469;55.638;37.670;2023-04-25T06:01:01;12.95;;;7.50;;
34200;SDS011;20469;55.638;37.670;2023-04-25T06:03:29;15.07;;;6.70;;
34200;SDS011;20469;55.638;37.670;2023-04-25T06:05:57;13.80;;;7.30;;
34200;SDS011;20469;55.638;37.670;2023-04-25T06:08:24;10.55;;;6.80;;
34200;SDS011;20469;55.638;37.670;2023-04-25T06:10:51;13.65;;;6.80;;
34200;SDS011;20469;55.638;37.670;2023-04-25T06:13:19;11.93;;;7.63;;
34200;SDS011;20469;55.638;37.670;2023-04-25T06:15:46;9.80;;;6.75;;
34200;SDS011;20469;55.638;37.670;2023-04-25T06:18:13;11.95;;;7.90;;
34200;SDS011;20469;55.638;37.670;2023-04-25T06:20:40;13.82;;;7.80;;
34200;SDS011;20469;55.638;37.670;2023-04-25T06:23:07;16.60;;;8.00;;
34200;SDS011;20469;55.638;37.670;2023-04-25T06:25:34;13.73;;;7.93;;
34200;SDS011;20469;55.638;37.670;2023-04-25T06:28:02;14.40;;;7.82;;
34200;SDS011;20469;55.638;37.670;2023-04-25T06:30:29;14.50;;;7.80;;
34200;SDS011;20469;55.638;37.670;2023-04-25T06:32:56;16.25;;;6.72;;
34200;SDS011;20469;55.638;37.670;2023-04-25T06:35:23;10.35;;;6.10;;
34200;SDS011;20469;55.638;37.670;2023-04-25T06:37:51;17.50;;;6.90;;
34200;SDS011;20469;55.638;37.670;2023-04-25T06:40:18;11.90;;;5.70;;
34200;SDS011;20469;55.638;37.670;2023-04-25T06:42:45;11.63;;;5.90;;
34200;SDS011;20469;55.638;37.670;2023-04-25T06:45:12;9.95;;;5.55;;
34200;SDS011;20469;55.638;37.670;2023-04-25T06:47:39;12.95;;;5.80;;
34200;SDS011;20469;55.638;37.670;2023-04-25T06:50:07;8.85;;;5.03;;
34200;SDS011;20469;55.638;37.670;2023-04-25T06:52:34;11.57;;;6.15;;
34200;SDS011;20469;55.638;37.670;2023-04-25T06:55:01;11.55;;;6.20;;
34200;SDS011;20469;55.638;37.670;2023-04-25T06:57:29;14.63;;;6.93;;
34200;SDS011;20469;55.638;37.670;2023-04-25T06:59:57;12.90;;;6.25;;
34200;SDS011;20469;55.638;37.670;2023-04-25T07:02:27;13.65;;;6.60;;
34200;SDS011;20469;55.638;37.670;2023-04-25T07:04:55;12.88;;;6.43;;
34200;SDS011;20469;55.638;37.670;2023-04-25T07:07:26;12.48;;;4.85;;
34200;SDS011;20469;55.638;37.670;2023-04-25T07:09:53;8.73;;;4.43;;
34200;SDS011;20469;55.638;37.670;2023-04-25T07:12:21;12.25;;;4.38;;
34200;SDS011;20469;55.638;37.670;2023-04-25T07:14:48;7.25;;;3.38;;
34200;SDS011;20469;55.638;37.670;2023-04-25T07:17:15;10.25;;;4.20;;
34200;SDS011;20469;55.638;37.670;2023-04-25T07:19:42;7.95;;;3.92;;
34200;SDS011;20469;55.638;37.670;2023-04-25T07:22:10;9.93;;;4.03;;
34200;SDS011;20469;55.638;37.670;2023-04-25T07:24:37;10.60;;;3.70;;
34200;SDS011;20469;55.638;37.670;2023-04-25T07:27:04;8.65;;;3.63;;
34200;SDS011;20469;55.638;37.670;2023-04-25T07:29:32;9.00;;;3.35;;
34200;SDS011;20469;55.638;37.670;2023-04-25T07:32:03;11.75;;;5.85;;
34200;SDS011;20469;55.638;37.670;2023-04-25T07:34:30;9.30;;;3.83;;
34200;SDS011;20469;55.638;37.670;2023-04-25T07:36:58;6.80;;;3.47;;
34200;SDS011;20469;55.638;37.670;2023-04-25T07:39:26;8.45;;;3.70;;
34200;SDS011;20469;55.638;37.670;2023-04-25T07:41:53;7.72;;;3.70;;
34200;SDS011;20469;55.638;37.670;2023-04-25T07:44:21;7.35;;;3.40;;
34200;SDS011;20469;55.638;37.670;2023-04-25T07:46:48;9.55;;;3.42;;
34200;SDS011;20469;55.638;37.670;2023-04-25T07:49:15;7.13;;;3.20;;
34200;SDS011;20469;55.638;37.670;2023-04-25T07:51:42;9.00;;;3.50;;
34200;SDS011;20469;55.638;37.670;2023-04-25T07:54:12;9.15;;;3.40;;
34200;SDS011;20469;55.638;37.670;2023-04-25T07:56:40;5.95;;;3.22;;
34200;SDS011;20469;55.638;37.670;2023-04-25T07:59:18;17.67;;;3.50;;
34200;SDS011;20469;55.638;37.670;2023-04-25T08:01:45;7.63;;;3.17;;
34200;SDS011;20469;55.638;37.670;2023-04-25T08:04:13;6.10;;;3.20;;
34200;SDS011;20469;55.638;37.670;2023-04-25T08:06:40;14.90;;;3.20;;
34200;SDS011;20469;55.638;37.670;2023-04-25T08:09:08;11.98;;;3.30;;
34200;SDS011;20469;55.638;37.670;2023-04-25T08:11:38;10.20;;;3.60;;
34200;SDS011;20469;55.638;37.670;2023-04-25T08:14:05;6.35;;;3.50;;
34200;SDS011;20469;55.638;37.670;2023-04-25T08:16:32;7.18;;;3.00;;
34200;SDS011;20469;55.638;37.670;2023-04-25T08:19:00;9.27;;;3.22;;
34200;SDS011;20469;55.638;37.670;2023-04-25T08:21:27;9.10;;;3.47;;
34200;SDS011;20469;55.638;37.670;2023-04-25T08:23:55;4.97;;;3.00;;
34200;SDS011;20469;55.638;37.670;2023-04-25T08:26:24;7.72;;;3.47;;
34200;SDS011;20469;55.638;37.670;2023-04-25T08:28:51;4.85;;;3.38;;
34200;SDS011;20469;55.638;37.670;2023-04-25T08:31:19;4.80;;;3.28;;
34200;SDS011;20469;55.638;37.670;2023-04-25T08:33:47;8.23;;;3.50;;
34200;SDS011;20469;55.638;37.670;2023-04-25T08:36:15;7.43;;;3.60;;
34200;SDS011;20469;55.638;37.670;2023-04-25T08:39:03;6.63;;;3.03;;
34200;SDS011;20469;55.638;37.670;2023-04-25T08:41:30;6.60;;;3.20;;
34200;SDS011;20469;55.638;37.670;2023-04-25T08:43:58;4.95;;;3.25;;
34200;SDS011;20469;55.638;37.670;2023-04-25T08:46:27;8.05;;;3.00;;
34200;SDS011;20469;55.638;37.670;2023-04-25T08:49:00;7.13;;;3.10;;
34200;SDS011;20469;55.638;37.670;2023-04-25T08:51:30;7.28;;;2.83;;
34200;SDS011;20469;55.638;37.670;2023-04-25T08:54:08;7.75;;;3.17;;
34200;SDS011;20469;55.638;37.670;2023-04-25T08:56:59;8.05;;;3.53;;
34200;SDS011;20469;55.638;37.670;2023-04-25T09:01:58;6.28;;;3.40;;
34200;SDS011;20469;55.638;37.670;2023-04-25T09:04:29;6.28;;;4.07;;
34200;SDS011;20469;55.638;37.670;2023-04-25T09:06:59;10.40;;;3.92;;
34200;SDS011;20469;55.638;37.670;2023-04-25T09:09:27;6.93;;;3.30;;
34200;SDS011;20469;55.638;37.670;2023-04-25T09:11:56;5.43;;;2.90;;
34200;SDS011;20469;55.638;37.670;2023-04-25T09:14:23;7.25;;;2.70;;
34200;SDS011;20469;55.638;37.670;2023-04-25T09:19:23;6.13;;;4.40;;
34200;SDS011;20469;55.638;37.670;2023-04-25T09:24:39;4.93;;;3.42;;
34200;SDS011;20469;55.638;37.670;2023-04-25T09:27:10;5.43;;;3.15;;
34200;SDS011;20469;55.638;37.670;2023-04-25T09:29:39;7.60;;;3.00;;
34200;SDS011;20469;55.638;37.670;2023-04-25T09:32:11;5.68;;;2.47;;
34200;SDS011;20469;55.638;37.670;2023-04-25T09:34:42;6.28;;;2.83;;
34200;SDS011;20469;55.638;37.670;2023-04-25T09:37:11;4.82;;;2.70;;
34200;SDS011;20469;55.638;37.670;2023-04-25T09:39:38;3.85;;;3.00;;
34200;SDS011;20469;55.638;37.670;2023-04-25T09:42:06;4.40;;;2.88;;
34200;SDS011;20469;55.638;37.670;2023-04-25T09:44:35;3.13;;;2.25;;
34200;SDS011;20469;55.638;37.670;2023-04-25T09:47:02;4.30;;;2.50;;
34200;SDS011;20469;55.638;37.670;2023-04-25T09:49:30;5.53;;;2.83;;
34200;SDS011;20469;55.638;37.670;2023-04-25T09:51:57;6.15;;;3.78;;
34200;SDS011;20469;55.638;37.670;2023-04-25T09:54:25;6.60;;;3.78;;
34200;SDS011;20469;55.638;37.670;2023-04-25T09:56:53;8.27;;;3.65;;
34200;SDS011;20469;55.638;37.670;2023-04-25T09:59:21;6.97;;;3.60;;
34200;SDS011;20469;55.638;37.670;2023-04-25T10:01:51;4.63;;;2.78;;
34200;SDS011;20469;55.638;37.670;2023-04-25T10:04:22;4.20;;;2.72;;
34200;SDS011;20469;55.638;37.670;2023-04-25T10:06:54;4.45;;;2.25;;
34200;SDS011;20469;55.638;37.670;2023-04-25T10:09:24;5.60;;;2.33;;
34200;SDS011;20469;55.638;37.670;2023-04-25T10:11:52;6.68;;;3.00;;
34200;SDS011;20469;55.638;37.670;2023-04-25T10:14:20;4.95;;;2.47;;
34200;SDS011;20469;55.638;37.670;2023-04-25T10:16:48;4.40;;;2.72;;
34200;SDS011;20469;55.638;37.670;2023-04-25T10:19:16;6.05;;;2.40;;
34200;SDS011;20469;55.638;37.670;2023-04-25T10:21:48;4.57;;;2.30;;
34200;SDS011;20469;55.638;37.670;2023-04-25T10:24:19;5.13;;;2.42;;
34200;SDS011;20469;55.638;37.670;2023-04-25T10:26:47;4.65;;;2.38;;
34200;SDS011;20469;55.638;37.670;2023-04-25T10:29:22;5.38;;;2.25;;
34200;SDS011;20469;55.638;37.670;2023-04-25T10:31:51;6.13;;;2.58;;
34200;SDS011;20469;55.638;37.670;2023-04-25T10:34:18;5.43;;;2.38;;
34200;SDS011;20469;55.638;37.670;2023-04-25T10:36:52;6.55;;;2.50;;
34200;SDS011;20469;55.638;37.670;2023-04-25T10:39:23;3.67;;;2.38;;
34200;SDS011;20469;55.638;37.670;2023-04-25T10:41:56;4.82;;;2.40;;
34200;SDS011;20469;55.638;37.670;2023-04-25T10:44:28;6.03;;;2.80;;
34200;SDS011;20469;55.638;37.670;2023-04-25T10:46:56;4.72;;;2.40;;
34200;SDS011;20469;55.638;37.670;2023-04-25T10:52:11;7.05;;;2.10;;
34200;SDS011;20469;55.638;37.670;2023-04-25T10:57:32;2.28;;;1.80;;
34200;SDS011;20469;55.638;37.670;2023-04-25T11:02:36;3.33;;;1.77;;
34200;SDS011;20469;55.638;37.670;2023-04-25T11:05:15;3.70;;;1.90;;
34200;SDS011;20469;55.638;37.670;2023-04-25T11:07:54;5.07;;;2.10;;
34200;SDS011;20469;55.638;37.670;2023-04-25T11:10:27;5.38;;;2.20;;
34200;SDS011;20469;55.638;37.670;2023-04-25T11:12:56;5.22;;;2.10;;
34200;SDS011;20469;55.638;37.670;2023-04-25T11:15:27;5.63;;;2.10;;
34200;SDS011;20469;55.638;37.670;2023-04-25T11:17:54;5.05;;;2.03;;
34200;SDS011;20469;55.638;37.670;2023-04-25T11:20:22;4.35;;;1.90;;
34200;SDS011;20469;55.638;37.670;2023-04-25T11:22:52;4.20;;;2.15;;
34200;SDS011;20469;55.638;37.670;2023-04-25T11:25:20;4.22;;;1.95;;
34200;SDS011;20469;55.638;37.670;2023-04-25T11:27:51;5.03;;;2.30;;
34200;SDS011;20469;55.638;37.670;2023-04-25T11:30:25;4.47;;;1.75;;
34200;SDS011;20469;55.638;37.670;2023-04-25T11:32:53;2.58;;;2.00;;
34200;SDS011;20469;55.638;37.670;2023-04-25T11:35:20;5.18;;;2.10;;
34200;SDS011;20469;55.638;37.670;2023-04-25T11:37:49;6.10;;;2.17;;
34200;SDS011;20469;55.638;37.670;2023-04-25T11:40:17;5.32;;;2.20;;
34200;SDS011;20469;55.638;37.670;2023-04-25T11:42:45;2.95;;;1.90;;
34200;SDS011;20469;55.638;37.670;2023-04-25T11:45:14;4.22;;;1.95;;
34200;SDS011;20469;55.638;37.670;2023-04-25T11:47:42;4.95;;;2.10;;
34200;SDS011;20469;55.638;37.670;2023-04-25T11:50:09;3.45;;;2.10;;
34200;SDS011;20469;55.638;37.670;2023-04-25T11:52:37;5.03;;;2.13;;
34200;SDS011;20469;55.638;37.670;2023-04-25T11:55:12;5.18;;;2.35;;
34200;SDS011;20469;55.638;37.670;2023-04-25T11:57:41;3.13;;;2.25;;
34200;SDS011;20469;55.638;37.670;2023-04-25T12:00:13;8.45;;;2.63;;
34200;SDS011;20469;55.638;37.670;2023-04-25T12:02:52;7.30;;;2.60;;
34200;SDS011;20469;55.638;37.670;2023-04-25T12:05:23;8.38;;;2.45;;
34200;SDS011;20469;55.638;37.670;2023-04-25T12:08:19;6.80;;;2.42;;
34200;SDS011;20469;55.638;37.670;2023-04-25T12:10:46;7.00;;;2.75;;
34200;SDS011;20469;55.638;37.670;2023-04-25T12:13:23;6.43;;;2.60;;
34200;SDS011;20469;55.638;37.670;2023-04-25T12:15:53;4.13;;;2.45;;
34200;SDS011;20469;55.638;37.670;2023-04-25T12:18:24;5.55;;;2.30;;
34200;SDS011;20469;55.638;37.670;2023-04-25T12:20:54;6.57;;;2.67;;
34200;SDS011;20469;55.638;37.670;2023-04-25T12:23:25;7.50;;;2.65;;
34200;SDS011;20469;55.638;37.670;2023-04-25T12:25:53;6.28;;;2.45;;
34200;SDS011;20469;55.638;37.670;2023-04-25T12:28:21;18.42;;;3.90;;
34200;SDS011;20469;55.638;37.670;2023-04-25T12:33:25;5.05;;;2.50;;
34200;SDS011;20469;55.638;37.670;2023-04-25T12:35:54;7.93;;;2.78;;
34200;SDS011;20469;55.638;37.670;2023-04-25T12:40:57;4.65;;;2.35;;
34200;SDS011;20469;55.638;37.670;2023-04-25T12:43:25;3.17;;;2.15;;
34200;SDS011;20469;55.638;37.670;2023-04-25T12:45:53;4.05;;;2.30;;
34200;SDS011;20469;55.638;37.670;2023-04-25T12:48:21;5.75;;;2.67;;
34200;SDS011;20469;55.638;37.670;2023-04-25T12:50:49;3.58;;;2.60;;
34200;SDS011;20469;55.638;37.670;2023-04-25T12:53:18;6.22;;;2.85;;
34200;SDS011;20469;55.638;37.670;2023-04-25T12:55:47;4.07;;;2.50;;
34200;SDS011;20469;55.638;37.670;2023-04-25T12:58:15;4.32;;;2.30;;
34200;SDS011;20469;55.638;37.670;2023-04-25T13:00:43;4.15;;;2.90;;
34200;SDS011;20469;55.638;37.670;2023-04-25T13:03:10;5.97;;;2.85;;
34200;SDS011;20469;55.638;37.670;2023-04-25T13:05:39;9.57;;;2.80;;
34200;SDS011;20469;55.638;37.670;2023-04-25T13:08:06;9.65;;;3.03;;
34200;SDS011;20469;55.638;37.670;2023-04-25T13:10:33;6.78;;;2.95;;
34200;SDS011;20469;55.638;37.670;2023-04-25T13:13:02;4.93;;;2.63;;
34200;SDS011;20469;55.638;37.670;2023-04-25T13:15:30;6.47;;;2.90;;
34200;SDS011;20469;55.638;37.670;2023-04-25T13:17:57;7.65;;;2.70;;
34200;SDS011;20469;55.638;37.670;2023-04-25T13:20:24;6.95;;;3.00;;
34200;SDS011;20469;55.638;37.670;2023-04-25T13:22:51;7.30;;;3.00;;
34200;SDS011;20469;55.638;37.670;2023-04-25T13:25:19;5.28;;;3.08;;
34200;SDS011;20469;55.638;37.670;2023-04-25T13:27:46;6.22;;;2.70;;
34200;SDS011;20469;55.638;37.670;2023-04-25T13:30:13;6.00;;;3.00;;
34200;SDS011;20469;55.638;37.670;2023-04-25T13:32:41;6.40;;;2.80;;
34200;SDS011;20469;55.638;37.670;2023-04-25T13:35:09;3.85;;;2.78;;
34200;SDS011;20469;55.638;37.670;2023-04-25T13:37:38;3.30;;;2.25;;
34200;SDS011;20469;55.638;37.670;2023-04-25T13:40:09;4.97;;;2.30;;
34200;SDS011;20469;55.638;37.670;2023-04-25T13:42:37;3.72;;;2.25;;
34200;SDS011;20469;55.638;37.670;2023-04-25T13:45:06;4.18;;;2.35;;
34200;SDS011;20469;55.638;37.670;2023-04-25T13:47:34;4.88;;;2.30;;
34200;SDS011;20469;55.638;37.670;2023-04-25T13:50:02;4.18;;;2.40;;
34200;SDS011;20469;55.638;37.670;2023-04-25T13:52:32;3.30;;;2.10;;
34200;SDS011;20469;55.638;37.670;2023-04-25T13:54:59;3.83;;;2.30;;
34200;SDS011;20469;55.638;37.670;2023-04-25T13:57:30;4.63;;;2.50;;
34200;SDS011;20469;55.638;37.670;2023-04-25T13:59:58;7.47;;;2.90;;
34200;SDS011;20469;55.638;37.670;2023-04-25T14:02:25;5.45;;;2.60;;
34200;SDS011;20469;55.638;37.670;2023-04-25T14:04:53;5.82;;;2.38;;
34200;SDS011;20469;55.638;37.670;2023-04-25T14:07:20;7.10;;;2.97;;
34200;SDS011;20469;55.638;37.670;2023-04-25T14:09:47;3.88;;;2.70;;
34200;SDS011;20469;55.638;37.670;2023-04-25T14:12:15;6.53;;;2.88;;
34200;SDS011;20469;55.638;37.670;2023-04-25T14:14:42;5.00;;;2.90;;
34200;SDS011;20469;55.638;37.670;2023-04-25T14:17:10;4.45;;;2.72;;
34200;SDS011;20469;55.638;37.670;2023-04-25T14:19:38;5.07;;;2.83;;
34200;SDS011;20469;55.638;37.670;2023-04-25T14:22:09;8.13;;;2.83;;
34200;SDS011;20469;55.638;37.670;2023-04-25T14:24:36;5.97;;;2.88;;
34200;SDS011;20469;55.638;37.670;2023-04-25T14:27:04;3.92;;;2.88;;
34200;SDS011;20469;55.638;37.670;2023-04-25T14:29:32;6.93;;;3.20;;
34200;SDS011;20469;55.638;37.670;2023-04-25T14:31:59;9.27;;;3.08;;
34200;SDS011;20469;55.638;37.670;2023-04-25T14:34:26;5.93;;;3.05;;
34200;SDS011;20469;55.638;37.670;2023-04-25T14:36:54;6.05;;;3.40;;
34200;SDS011;20469;55.638;37.670;2023-04-25T14:39:21;7.25;;;3.33;;
34200;SDS011;20469;55.638;37.670;2023-04-25T14:41:48;10.98;;;4.57;;
34200;SDS011;20469;55.638;37.670;2023-04-25T14:44:15;7.75;;;4.05;;
34200;SDS011;20469;55.638;37.670;2023-04-25T14:46:42;6.28;;;3.47;;
34200;SDS011;20469;55.638;37.670;2023-04-25T14:49:10;8.38;;;3.47;;
34200;SDS011;20469;55.638;37.670;2023-04-25T14:51:37;6.25;;;3.47;;
34200;SDS011;20469;55.638;37.670;2023-04-25T14:54:04;7.60;;;3.90;;
34200;SDS011;20469;55.638;37.670;2023-04-25T14:56:31;6.35;;;3.50;;
34200;SDS011;20469;55.638;37.670;2023-04-25T14:58:58;7.68;;;3.53;;
34200;SDS011;20469;55.638;37.670;2023-04-25T15:01:25;8.70;;;3.97;;